sensor_id;sensor_type;location;lat;lon;timestamp;P1;durP1;ratioP1;P2;durP2;ratioP2
5303;SDS011;2674;49.722;10.892;2023-06-26T00:01:19;12.53;;;9.00;;
5303;SDS011;2674;49.722;10.892;2023-06-26T00:03:46;8.73;;;7.13;;
5303;SDS011;2674;49.722;10.892;2023-06-26T00:06:12;8.40;;;7.50;;
5303;SDS011;2674;49.722;10.892;2023-06-26T00:08:38;10.47;;;8.47;;
5303;SDS011;2674;49.722;10.892;2023-06-26T00:11:05;10.13;;;9.10;;
5303;SDS011;2674;49.722;10.892;2023-06-26T00:13:31;13.50;;;8.63;;
5303;SDS011;2674;49.722;10.892;2023-06-26T00:15:56;10.00;;;8.20;;
5303;SDS011;2674;49.722;10.892;2023-06-26T00:18:22;8.50;;;7.60;;
5303;SDS011;2674;49.722;10.892;2023-06-26T00:20:49;8.10;;;7.30;;
5303;SDS011;2674;49.722;10.892;2023-06-26T00:23:16;9.70;;;7.83;;
5303;SDS011;2674;49.722;10.892;2023-06-26T00:25:42;11.33;;;8.30;;
5303;SDS011;2674;49.722;10.892;2023-06-26T00:28:10;10.80;;;8.60;;
5303;SDS011;2674;49.722;10.892;2023-06-26T00:30:36;9.70;;;8.43;;
5303;SDS011;2674;49.722;10.892;2023-06-26T00:33:01;8.50;;;7.60;;
5303;SDS011;2674;49.722;10.892;2023-06-26T00:35:27;9.90;;;8.33;;
5303;SDS011;2674;49.722;10.892;2023-06-26T00:37:53;9.27;;;8.17;;
5303;SDS011;2674;49.722;10.892;2023-06-26T00:40:19;9.97;;;7.20;;
5303;SDS011;2674;49.722;10.892;2023-06-26T00:42:45;8.60;;;7.50;;
5303;SDS011;2674;49.722;10.892;2023-06-26T00:45:10;9.80;;;8.57;;
5303;SDS011;2674;49.722;10.892;2023-06-26T00:47:37;8.50;;;7.70;;
5303;SDS011;2674;49.722;10.892;2023-06-26T00:50:03;13.10;;;8.63;;
5303;SDS011;2674;49.722;10.892;2023-06-26T00:52:30;9.23;;;7.70;;
5303;SDS011;2674;49.722;10.892;2023-06-26T00:54:56;7.97;;;7.20;;
5303;SDS011;2674;49.722;10.892;2023-06-26T00:57:22;10.50;;;8.10;;
5303;SDS011;2674;49.722;10.892;2023-06-26T00:59:49;8.27;;;7.37;;
5303;SDS011;2674;49.722;10.892;2023-06-26T01:02:15;8.40;;;7.60;;
5303;SDS011;2674;49.722;10.892;2023-06-26T01:04:46;11.10;;;8.70;;
5303;SDS011;2674;49.722;10.892;2023-06-26T01:07:13;9.00;;;7.50;;
5303;SDS011;2674;49.722;10.892;2023-06-26T01:09:40;8.90;;;7.67;;
5303;SDS011;2674;49.722;10.892;2023-06-26T01:12:07;8.43;;;7.53;;
5303;SDS011;2674;49.722;10.892;2023-06-26T01:14:36;10.20;;;8.23;;
5303;SDS011;2674;49.722;10.892;2023-06-26T01:17:02;9.37;;;7.83;;
5303;SDS011;2674;49.722;10.892;2023-06-26T01:19:29;9.47;;;8.20;;
5303;SDS011;2674;49.722;10.892;2023-06-26T01:22:20;11.37;;;8.63;;
5303;SDS011;2674;49.722;10.892;2023-06-26T01:25:03;11.10;;;8.87;;
5303;SDS011;2674;49.722;10.892;2023-06-26T01:27:54;9.13;;;8.13;;
5303;SDS011;2674;49.722;10.892;2023-06-26T01:30:21;9.73;;;8.13;;
5303;SDS011;2674;49.722;10.892;2023-06-26T01:32:49;12.43;;;8.60;;
5303;SDS011;2674;49.722;10.892;2023-06-26T01:35:15;10.67;;;8.50;;
5303;SDS011;2674;49.722;10.892;2023-06-26T01:37:42;9.80;;;8.07;;
5303;SDS011;2674;49.722;10.892;2023-06-26T01:40:08;8.50;;;7.63;;
5303;SDS011;2674;49.722;10.892;2023-06-26T01:42:35;10.87;;;7.77;;
5303;SDS011;2674;49.722;10.892;2023-06-26T01:45:07;9.17;;;7.93;;
5303;SDS011;2674;49.722;10.892;2023-06-26T01:47:43;9.30;;;7.77;;
5303;SDS011;2674;49.722;10.892;2023-06-26T01:50:24;7.90;;;7.10;;
5303;SDS011;2674;49.722;10.892;2023-06-26T01:55:40;8.80;;;7.60;;
5303;SDS011;2674;49.722;10.892;2023-06-26T01:58:23;9.40;;;8.07;;
5303;SDS011;2674;49.722;10.892;2023-06-26T02:00:50;8.00;;;6.90;;
5303;SDS011;2674;49.722;10.892;2023-06-26T02:03:16;10.73;;;7.33;;
5303;SDS011;2674;49.722;10.892;2023-06-26T02:05:42;9.30;;;7.90;;
5303;SDS011;2674;49.722;10.892;2023-06-26T02:08:09;9.23;;;7.17;;
5303;SDS011;2674;49.722;10.892;2023-06-26T02:10:35;9.23;;;8.07;;
5303;SDS011;2674;49.722;10.892;2023-06-26T02:13:01;9.90;;;7.23;;
5303;SDS011;2674;49.722;10.892;2023-06-26T02:15:27;10.23;;;7.50;;
5303;SDS011;2674;49.722;10.892;2023-06-26T02:17:53;11.80;;;8.13;;
5303;SDS011;2674;49.722;10.892;2023-06-26T02:20:19;12.67;;;9.23;;
5303;SDS011;2674;49.722;10.892;2023-06-26T02:22:44;11.87;;;7.73;;
5303;SDS011;2674;49.722;10.892;2023-06-26T02:25:10;8.87;;;7.97;;
5303;SDS011;2674;49.722;10.892;2023-06-26T02:27:37;8.93;;;7.60;;
5303;SDS011;2674;49.722;10.892;2023-06-26T02:30:03;9.50;;;7.90;;
5303;SDS011;2674;49.722;10.892;2023-06-26T02:32:30;9.73;;;7.70;;
5303;SDS011;2674;49.722;10.892;2023-06-26T02:34:56;13.43;;;7.37;;
5303;SDS011;2674;49.722;10.892;2023-06-26T02:37:21;8.90;;;7.47;;
5303;SDS011;2674;49.722;10.892;2023-06-26T02:39:47;10.90;;;7.40;;
5303;SDS011;2674;49.722;10.892;2023-06-26T02:42:13;8.50;;;6.93;;
5303;SDS011;2674;49.722;10.892;2023-06-26T02:44:39;8.77;;;7.03;;
5303;SDS011;2674;49.722;10.892;2023-06-26T02:47:06;9.90;;;7.60;;
5303;SDS011;2674;49.722;10.892;2023-06-26T02:49:31;8.13;;;7.30;;
5303;SDS011;2674;49.722;10.892;2023-06-26T02:51:57;9.83;;;7.87;;
5303;SDS011;2674;49.722;10.892;2023-06-26T02:54:23;16.43;;;8.40;;
5303;SDS011;2674;49.722;10.892;2023-06-26T02:56:49;11.13;;;7.87;;
5303;SDS011;2674;49.722;10.892;2023-06-26T02:59:15;10.93;;;7.70;;
5303;SDS011;2674;49.722;10.892;2023-06-26T03:01:40;8.80;;;7.60;;
5303;SDS011;2674;49.722;10.892;2023-06-26T03:04:06;10.63;;;8.30;;
5303;SDS011;2674;49.722;10.892;2023-06-26T03:06:33;10.30;;;7.50;;
5303;SDS011;2674;49.722;10.892;2023-06-26T03:08:59;11.00;;;8.33;;
5303;SDS011;2674;49.722;10.892;2023-06-26T03:11:25;13.83;;;8.37;;
5303;SDS011;2674;49.722;10.892;2023-06-26T03:13:51;10.53;;;7.33;;
5303;SDS011;2674;49.722;10.892;2023-06-26T03:16:16;8.90;;;7.87;;
5303;SDS011;2674;49.722;10.892;2023-06-26T03:18:42;9.10;;;7.60;;
5303;SDS011;2674;49.722;10.892;2023-06-26T03:21:08;10.40;;;7.87;;
5303;SDS011;2674;49.722;10.892;2023-06-26T03:23:35;11.17;;;7.40;;
5303;SDS011;2674;49.722;10.892;2023-06-26T03:26:00;9.70;;;8.00;;
5303;SDS011;2674;49.722;10.892;2023-06-26T03:28:26;10.50;;;7.97;;
5303;SDS011;2674;49.722;10.892;2023-06-26T03:30:52;12.80;;;7.90;;
5303;SDS011;2674;49.722;10.892;2023-06-26T03:33:18;9.80;;;7.80;;
5303;SDS011;2674;49.722;10.892;2023-06-26T03:35:44;10.67;;;8.57;;
5303;SDS011;2674;49.722;10.892;2023-06-26T03:38:10;9.70;;;7.57;;
5303;SDS011;2674;49.722;10.892;2023-06-26T03:40:35;10.97;;;8.63;;
5303;SDS011;2674;49.722;10.892;2023-06-26T03:43:01;8.83;;;7.93;;
5303;SDS011;2674;49.722;10.892;2023-06-26T03:45:27;11.47;;;8.17;;
5303;SDS011;2674;49.722;10.892;2023-06-26T03:47:53;12.60;;;8.77;;
5303;SDS011;2674;49.722;10.892;2023-06-26T03:50:19;8.77;;;7.77;;
5303;SDS011;2674;49.722;10.892;2023-06-26T03:52:45;10.70;;;8.70;;
5303;SDS011;2674;49.722;10.892;2023-06-26T03:55:11;10.60;;;8.00;;
5303;SDS011;2674;49.722;10.892;2023-06-26T03:57:37;10.00;;;7.90;;
5303;SDS011;2674;49.722;10.892;2023-06-26T04:00:03;9.60;;;7.47;;
5303;SDS011;2674;49.722;10.892;2023-06-26T04:02:34;9.40;;;7.90;;
5303;SDS011;2674;49.722;10.892;2023-06-26T04:05:00;11.20;;;9.10;;
5303;SDS011;2674;49.722;10.892;2023-06-26T04:07:26;10.83;;;8.80;;
5303;SDS011;2674;49.722;10.892;2023-06-26T04:09:52;9.10;;;7.53;;
5303;SDS011;2674;49.722;10.892;2023-06-26T04:12:18;11.37;;;8.03;;
5303;SDS011;2674;49.722;10.892;2023-06-26T04:14:44;10.90;;;8.30;;
5303;SDS011;2674;49.722;10.892;2023-06-26T04:17:10;12.30;;;8.33;;
5303;SDS011;2674;49.722;10.892;2023-06-26T04:19:35;8.77;;;7.73;;
5303;SDS011;2674;49.722;10.892;2023-06-26T04:22:01;10.57;;;8.10;;
5303;SDS011;2674;49.722;10.892;2023-06-26T04:24:27;9.30;;;8.47;;
5303;SDS011;2674;49.722;10.892;2023-06-26T04:26:53;10.43;;;8.83;;
5303;SDS011;2674;49.722;10.892;2023-06-26T04:29:22;14.00;;;8.33;;
5303;SDS011;2674;49.722;10.892;2023-06-26T04:36:54;9.27;;;7.70;;
5303;SDS011;2674;49.722;10.892;2023-06-26T04:39:19;9.10;;;7.53;;
5303;SDS011;2674;49.722;10.892;2023-06-26T04:41:45;14.50;;;6.90;;
5303;SDS011;2674;49.722;10.892;2023-06-26T04:44:11;8.70;;;7.17;;
5303;SDS011;2674;49.722;10.892;2023-06-26T04:46:37;10.90;;;8.17;;
5303;SDS011;2674;49.722;10.892;2023-06-26T04:49:06;10.27;;;6.50;;
5303;SDS011;2674;49.722;10.892;2023-06-26T04:51:33;9.70;;;7.70;;
5303;SDS011;2674;49.722;10.892;2023-06-26T04:53:58;8.10;;;7.30;;
5303;SDS011;2674;49.722;10.892;2023-06-26T04:56:24;9.13;;;7.53;;
5303;SDS011;2674;49.722;10.892;2023-06-26T04:58:50;7.73;;;7.00;;
5303;SDS011;2674;49.722;10.892;2023-06-26T05:01:16;8.93;;;7.00;;
5303;SDS011;2674;49.722;10.892;2023-06-26T05:03:42;7.60;;;6.80;;
5303;SDS011;2674;49.722;10.892;2023-06-26T05:06:08;11.30;;;7.57;;
5303;SDS011;2674;49.722;10.892;2023-06-26T05:08:34;7.97;;;6.73;;
5303;SDS011;2674;49.722;10.892;2023-06-26T05:10:59;8.47;;;6.93;;
5303;SDS011;2674;49.722;10.892;2023-06-26T05:13:25;11.27;;;7.67;;
5303;SDS011;2674;49.722;10.892;2023-06-26T05:15:52;10.53;;;7.53;;
5303;SDS011;2674;49.722;10.892;2023-06-26T05:18:18;12.63;;;7.57;;
5303;SDS011;2674;49.722;10.892;2023-06-26T05:20:44;9.83;;;6.70;;
5303;SDS011;2674;49.722;10.892;2023-06-26T05:23:10;10.80;;;7.40;;
5303;SDS011;2674;49.722;10.892;2023-06-26T05:25:37;9.03;;;6.90;;
5303;SDS011;2674;49.722;10.892;2023-06-26T05:28:03;7.80;;;6.50;;
5303;SDS011;2674;49.722;10.892;2023-06-26T05:30:35;9.50;;;7.63;;
5303;SDS011;2674;49.722;10.892;2023-06-26T05:33:02;8.07;;;7.03;;
5303;SDS011;2674;49.722;10.892;2023-06-26T05:35:29;11.07;;;7.80;;
5303;SDS011;2674;49.722;10.892;2023-06-26T05:37:56;6.73;;;5.90;;
5303;SDS011;2674;49.722;10.892;2023-06-26T05:40:23;7.97;;;6.60;;
5303;SDS011;2674;49.722;10.892;2023-06-26T05:42:49;8.30;;;7.13;;
5303;SDS011;2674;49.722;10.892;2023-06-26T05:45:15;8.07;;;7.23;;
5303;SDS011;2674;49.722;10.892;2023-06-26T05:47:41;8.67;;;6.57;;
5303;SDS011;2674;49.722;10.892;2023-06-26T05:50:08;8.97;;;6.70;;
5303;SDS011;2674;49.722;10.892;2023-06-26T05:52:35;7.77;;;6.53;;
5303;SDS011;2674;49.722;10.892;2023-06-26T05:55:07;7.40;;;6.30;;
5303;SDS011;2674;49.722;10.892;2023-06-26T05:57:34;6.97;;;6.27;;
5303;SDS011;2674;49.722;10.892;2023-06-26T06:00:02;7.73;;;6.80;;
5303;SDS011;2674;49.722;10.892;2023-06-26T06:02:30;7.03;;;6.40;;
5303;SDS011;2674;49.722;10.892;2023-06-26T06:04:56;10.43;;;6.60;;
5303;SDS011;2674;49.722;10.892;2023-06-26T06:07:22;8.30;;;6.53;;
5303;SDS011;2674;49.722;10.892;2023-06-26T06:09:48;8.80;;;6.47;;
5303;SDS011;2674;49.722;10.892;2023-06-26T06:12:13;8.80;;;7.50;;
5303;SDS011;2674;49.722;10.892;2023-06-26T06:14:42;6.77;;;6.07;;
5303;SDS011;2674;49.722;10.892;2023-06-26T06:17:08;10.70;;;5.80;;
5303;SDS011;2674;49.722;10.892;2023-06-26T06:19:34;7.77;;;6.10;;
5303;SDS011;2674;49.722;10.892;2023-06-26T06:22:00;7.63;;;6.93;;
5303;SDS011;2674;49.722;10.892;2023-06-26T06:24:25;9.90;;;6.93;;
5303;SDS011;2674;49.722;10.892;2023-06-26T06:26:51;11.90;;;8.00;;
5303;SDS011;2674;49.722;10.892;2023-06-26T06:29:17;9.53;;;6.97;;
5303;SDS011;2674;49.722;10.892;2023-06-26T06:31:44;8.13;;;6.30;;
5303;SDS011;2674;49.722;10.892;2023-06-26T06:34:10;7.40;;;6.50;;
5303;SDS011;2674;49.722;10.892;2023-06-26T06:36:37;7.60;;;6.80;;
5303;SDS011;2674;49.722;10.892;2023-06-26T06:39:02;9.60;;;7.47;;
5303;SDS011;2674;49.722;10.892;2023-06-26T06:41:28;9.00;;;6.90;;
5303;SDS011;2674;49.722;10.892;2023-06-26T06:43:54;7.37;;;6.50;;
5303;SDS011;2674;49.722;10.892;2023-06-26T06:46:20;7.87;;;6.73;;
5303;SDS011;2674;49.722;10.892;2023-06-26T06:48:46;7.23;;;6.10;;
5303;SDS011;2674;49.722;10.892;2023-06-26T06:51:12;8.40;;;6.63;;
5303;SDS011;2674;49.722;10.892;2023-06-26T06:53:38;9.70;;;7.30;;
5303;SDS011;2674;49.722;10.892;2023-06-26T06:56:04;7.80;;;7.00;;
5303;SDS011;2674;49.722;10.892;2023-06-26T06:58:29;12.27;;;7.30;;
5303;SDS011;2674;49.722;10.892;2023-06-26T07:00:59;8.20;;;6.93;;
5303;SDS011;2674;49.722;10.892;2023-06-26T07:03:27;8.30;;;6.77;;
5303;SDS011;2674;49.722;10.892;2023-06-26T07:05:53;9.70;;;6.90;;
5303;SDS011;2674;49.722;10.892;2023-06-26T07:08:20;7.73;;;6.93;;
5303;SDS011;2674;49.722;10.892;2023-06-26T07:10:46;13.03;;;7.63;;
5303;SDS011;2674;49.722;10.892;2023-06-26T07:13:11;8.43;;;7.20;;
5303;SDS011;2674;49.722;10.892;2023-06-26T07:15:37;13.10;;;7.70;;
5303;SDS011;2674;49.722;10.892;2023-06-26T07:18:03;9.13;;;7.30;;
5303;SDS011;2674;49.722;10.892;2023-06-26T07:20:29;8.60;;;7.00;;
5303;SDS011;2674;49.722;10.892;2023-06-26T07:22:55;9.00;;;7.23;;
5303;SDS011;2674;49.722;10.892;2023-06-26T07:25:21;18.97;;;6.80;;
5303;SDS011;2674;49.722;10.892;2023-06-26T07:27:47;9.00;;;7.70;;
5303;SDS011;2674;49.722;10.892;2023-06-26T07:30:12;15.80;;;7.77;;
5303;SDS011;2674;49.722;10.892;2023-06-26T07:32:55;9.20;;;7.00;;
5303;SDS011;2674;49.722;10.892;2023-06-26T07:35:20;10.70;;;7.50;;
5303;SDS011;2674;49.722;10.892;2023-06-26T07:37:46;9.43;;;7.50;;
5303;SDS011;2674;49.722;10.892;2023-06-26T07:40:12;8.97;;;8.10;;
5303;SDS011;2674;49.722;10.892;2023-06-26T07:42:38;8.20;;;6.83;;
5303;SDS011;2674;49.722;10.892;2023-06-26T07:45:05;7.43;;;6.53;;
5303;SDS011;2674;49.722;10.892;2023-06-26T07:47:36;10.80;;;7.57;;
5303;SDS011;2674;49.722;10.892;2023-06-26T07:50:05;7.90;;;6.90;;
5303;SDS011;2674;49.722;10.892;2023-06-26T07:52:31;9.27;;;7.30;;
5303;SDS011;2674;49.722;10.892;2023-06-26T07:54:57;10.47;;;8.63;;
5303;SDS011;2674;49.722;10.892;2023-06-26T07:57:24;8.63;;;7.10;;
5303;SDS011;2674;49.722;10.892;2023-06-26T07:59:50;8.70;;;7.87;;
5303;SDS011;2674;49.722;10.892;2023-06-26T08:02:16;9.60;;;7.30;;
5303;SDS011;2674;49.722;10.892;2023-06-26T08:04:42;15.30;;;8.80;;
5303;SDS011;2674;49.722;10.892;2023-06-26T08:07:08;9.97;;;8.10;;
5303;SDS011;2674;49.722;10.892;2023-06-26T08:09:34;11.63;;;7.70;;
5303;SDS011;2674;49.722;10.892;2023-06-26T08:12:00;11.33;;;7.83;;
5303;SDS011;2674;49.722;10.892;2023-06-26T08:14:26;10.43;;;8.17;;
5303;SDS011;2674;49.722;10.892;2023-06-26T08:16:52;9.40;;;8.33;;
5303;SDS011;2674;49.722;10.892;2023-06-26T08:19:18;10.20;;;7.80;;
5303;SDS011;2674;49.722;10.892;2023-06-26T08:21:44;11.23;;;7.60;;
5303;SDS011;2674;49.722;10.892;2023-06-26T08:24:11;8.47;;;7.57;;
5303;SDS011;2674;49.722;10.892;2023-06-26T08:26:47;9.13;;;7.50;;
5303;SDS011;2674;49.722;10.892;2023-06-26T08:29:13;12.03;;;8.00;;
5303;SDS011;2674;49.722;10.892;2023-06-26T08:31:40;9.67;;;8.07;;
5303;SDS011;2674;49.722;10.892;2023-06-26T08:34:07;10.77;;;8.90;;
5303;SDS011;2674;49.722;10.892;2023-06-26T08:36:33;11.43;;;7.97;;
5303;SDS011;2674;49.722;10.892;2023-06-26T08:38:59;12.67;;;8.67;;
5303;SDS011;2674;49.722;10.892;2023-06-26T08:41:25;8.37;;;7.03;;
5303;SDS011;2674;49.722;10.892;2023-06-26T08:43:51;8.77;;;7.70;;
5303;SDS011;2674;49.722;10.892;2023-06-26T08:46:18;14.70;;;9.10;;
5303;SDS011;2674;49.722;10.892;2023-06-26T08:49:28;12.93;;;8.80;;
5303;SDS011;2674;49.722;10.892;2023-06-26T08:51:39;12.27;;;8.20;;
5303;SDS011;2674;49.722;10.892;2023-06-26T08:54:11;8.07;;;7.27;;
5303;SDS011;2674;49.722;10.892;2023-06-26T08:56:41;12.13;;;6.73;;
5303;SDS011;2674;49.722;10.892;2023-06-26T08:59:12;9.00;;;7.50;;
5303;SDS011;2674;49.722;10.892;2023-06-26T09:01:39;11.17;;;6.30;;
5303;SDS011;2674;49.722;10.892;2023-06-26T09:04:06;7.00;;;6.30;;
5303;SDS011;2674;49.722;10.892;2023-06-26T09:06:32;12.30;;;7.60;;
5303;SDS011;2674;49.722;10.892;2023-06-26T09:08:58;9.50;;;7.80;;
5303;SDS011;2674;49.722;10.892;2023-06-26T09:11:24;7.80;;;6.90;;
5303;SDS011;2674;49.722;10.892;2023-06-26T09:13:50;7.87;;;7.10;;
5303;SDS011;2674;49.722;10.892;2023-06-26T09:16:17;8.63;;;7.10;;
5303;SDS011;2674;49.722;10.892;2023-06-26T09:18:46;8.50;;;7.60;;
5303;SDS011;2674;49.722;10.892;2023-06-26T09:21:12;8.90;;;8.00;;
5303;SDS011;2674;49.722;10.892;2023-06-26T09:23:39;12.27;;;7.43;;
5303;SDS011;2674;49.722;10.892;2023-06-26T09:26:06;9.63;;;8.13;;
5303;SDS011;2674;49.722;10.892;2023-06-26T09:28:32;11.03;;;7.87;;
5303;SDS011;2674;49.722;10.892;2023-06-26T09:31:07;7.80;;;6.73;;
5303;SDS011;2674;49.722;10.892;2023-06-26T09:33:37;8.47;;;7.37;;
5303;SDS011;2674;49.722;10.892;2023-06-26T09:36:07;7.83;;;7.03;;
5303;SDS011;2674;49.722;10.892;2023-06-26T09:38:35;12.17;;;7.73;;
5303;SDS011;2674;49.722;10.892;2023-06-26T09:41:02;12.60;;;6.63;;
5303;SDS011;2674;49.722;10.892;2023-06-26T09:43:28;7.73;;;7.00;;
5303;SDS011;2674;49.722;10.892;2023-06-26T09:45:56;8.10;;;7.30;;
5303;SDS011;2674;49.722;10.892;2023-06-26T09:48:22;9.20;;;8.03;;
5303;SDS011;2674;49.722;10.892;2023-06-26T09:50:48;8.63;;;7.73;;
5303;SDS011;2674;49.722;10.892;2023-06-26T09:53:14;10.77;;;8.67;;
5303;SDS011;2674;49.722;10.892;2023-06-26T09:55:40;8.73;;;7.20;;
5303;SDS011;2674;49.722;10.892;2023-06-26T09:58:10;8.73;;;7.07;;
5303;SDS011;2674;49.722;10.892;2023-06-26T10:00:43;9.00;;;8.00;;
5303;SDS011;2674;49.722;10.892;2023-06-26T10:03:12;7.70;;;6.90;;
5303;SDS011;2674;49.722;10.892;2023-06-26T10:05:38;7.40;;;6.70;;
5303;SDS011;2674;49.722;10.892;2023-06-26T10:08:05;8.90;;;6.73;;
5303;SDS011;2674;49.722;10.892;2023-06-26T10:10:33;8.60;;;7.80;;
5303;SDS011;2674;49.722;10.892;2023-06-26T10:13:01;8.37;;;7.57;;
5303;SDS011;2674;49.722;10.892;2023-06-26T10:15:33;8.80;;;7.00;;
5303;SDS011;2674;49.722;10.892;2023-06-26T10:18:00;10.70;;;7.33;;
5303;SDS011;2674;49.722;10.892;2023-06-26T10:20:26;8.90;;;8.00;;
5303;SDS011;2674;49.722;10.892;2023-06-26T10:22:52;8.30;;;7.50;;
5303;SDS011;2674;49.722;10.892;2023-06-26T10:25:20;8.40;;;7.60;;
5303;SDS011;2674;49.722;10.892;2023-06-26T10:27:50;7.07;;;6.33;;
5303;SDS011;2674;49.722;10.892;2023-06-26T10:30:22;10.40;;;7.70;;
5303;SDS011;2674;49.722;10.892;2023-06-26T10:32:52;8.30;;;7.00;;
5303;SDS011;2674;49.722;10.892;2023-06-26T10:35:18;8.80;;;6.80;;
5303;SDS011;2674;49.722;10.892;2023-06-26T10:37:48;7.83;;;7.03;;
5303;SDS011;2674;49.722;10.892;2023-06-26T10:40:20;8.23;;;7.30;;
5303;SDS011;2674;49.722;10.892;2023-06-26T10:42:49;7.80;;;6.73;;
5303;SDS011;2674;49.722;10.892;2023-06-26T10:45:16;9.20;;;7.90;;
5303;SDS011;2674;49.722;10.892;2023-06-26T10:47:47;7.67;;;6.87;;
5303;SDS011;2674;49.722;10.892;2023-06-26T10:55:57;7.30;;;6.60;;
5303;SDS011;2674;49.722;10.892;2023-06-26T11:01:20;9.60;;;6.73;;
5303;SDS011;2674;49.722;10.892;2023-06-26T11:06:22;7.20;;;6.50;;
5303;SDS011;2674;49.722;10.892;2023-06-26T11:13:46;13.00;;;6.47;;
5303;SDS011;2674;49.722;10.892;2023-06-26T11:16:13;7.20;;;6.50;;
5303;SDS011;2674;49.722;10.892;2023-06-26T11:18:40;6.30;;;5.70;;
5303;SDS011;2674;49.722;10.892;2023-06-26T11:21:07;6.33;;;5.83;;
5303;SDS011;2674;49.722;10.892;2023-06-26T11:23:34;8.07;;;6.30;;
5303;SDS011;2674;49.722;10.892;2023-06-26T11:26:15;7.67;;;6.17;;
5303;SDS011;2674;49.722;10.892;2023-06-26T11:28:50;6.57;;;5.97;;
5303;SDS011;2674;49.722;10.892;2023-06-26T11:31:34;7.00;;;6.33;;
5303;SDS011;2674;49.722;10.892;2023-06-26T11:34:03;7.63;;;6.67;;
5303;SDS011;2674;49.722;10.892;2023-06-26T11:36:39;6.20;;;5.60;;
5303;SDS011;2674;49.722;10.892;2023-06-26T11:39:07;10.03;;;5.90;;
5303;SDS011;2674;49.722;10.892;2023-06-26T11:41:37;6.50;;;5.73;;
5303;SDS011;2674;49.722;10.892;2023-06-26T11:44:05;8.10;;;6.23;;
5303;SDS011;2674;49.722;10.892;2023-06-26T11:46:33;8.07;;;6.10;;
5303;SDS011;2674;49.722;10.892;2023-06-26T11:49:00;6.90;;;6.20;;
5303;SDS011;2674;49.722;10.892;2023-06-26T11:51:34;6.50;;;5.60;;
5303;SDS011;2674;49.722;10.892;2023-06-26T11:54:03;8.07;;;5.93;;
5303;SDS011;2674;49.722;10.892;2023-06-26T11:56:29;5.80;;;5.30;;
5303;SDS011;2674;49.722;10.892;2023-06-26T11:58:56;6.00;;;5.40;;
5303;SDS011;2674;49.722;10.892;2023-06-26T12:01:24;5.93;;;5.40;;
5303;SDS011;2674;49.722;10.892;2023-06-26T12:03:53;5.17;;;4.77;;
5303;SDS011;2674;49.722;10.892;2023-06-26T12:06:26;5.63;;;5.03;;
5303;SDS011;2674;49.722;10.892;2023-06-26T12:08:52;6.20;;;5.47;;
5303;SDS011;2674;49.722;10.892;2023-06-26T12:11:19;6.00;;;5.27;;
5303;SDS011;2674;49.722;10.892;2023-06-26T12:13:48;5.70;;;5.20;;
5303;SDS011;2674;49.722;10.892;2023-06-26T12:16:14;6.50;;;5.30;;
5303;SDS011;2674;49.722;10.892;2023-06-26T12:18:40;6.37;;;5.17;;
5303;SDS011;2674;49.722;10.892;2023-06-26T12:21:06;6.40;;;5.80;;
5303;SDS011;2674;49.722;10.892;2023-06-26T12:23:32;6.50;;;5.90;;
5303;SDS011;2674;49.722;10.892;2023-06-26T12:26:15;9.30;;;5.37;;
5303;SDS011;2674;49.722;10.892;2023-06-26T12:28:44;6.90;;;5.87;;
5303;SDS011;2674;49.722;10.892;2023-06-26T12:31:17;5.50;;;5.00;;
5303;SDS011;2674;49.722;10.892;2023-06-26T12:33:47;5.70;;;5.20;;
5303;SDS011;2674;49.722;10.892;2023-06-26T12:36:13;6.03;;;5.43;;
5303;SDS011;2674;49.722;10.892;2023-06-26T12:38:40;5.77;;;5.30;;
5303;SDS011;2674;49.722;10.892;2023-06-26T12:41:15;6.63;;;6.03;;
5303;SDS011;2674;49.722;10.892;2023-06-26T12:43:42;6.93;;;6.23;;
5303;SDS011;2674;49.722;10.892;2023-06-26T12:46:08;9.27;;;5.73;;
5303;SDS011;2674;49.722;10.892;2023-06-26T12:48:43;10.80;;;5.63;;
5303;SDS011;2674;49.722;10.892;2023-06-26T12:51:12;5.70;;;5.20;;
5303;SDS011;2674;49.722;10.892;2023-06-26T12:53:40;6.40;;;5.67;;
5303;SDS011;2674;49.722;10.892;2023-06-26T12:56:07;6.33;;;5.80;;
5303;SDS011;2674;49.722;10.892;2023-06-26T12:58:33;7.27;;;5.73;;
5303;SDS011;2674;49.722;10.892;2023-06-26T13:01:01;5.77;;;5.27;;
5303;SDS011;2674;49.722;10.892;2023-06-26T13:03:39;7.00;;;6.40;;
5303;SDS011;2674;49.722;10.892;2023-06-26T13:06:06;5.63;;;5.13;;
5303;SDS011;2674;49.722;10.892;2023-06-26T13:08:32;6.40;;;5.70;;
5303;SDS011;2674;49.722;10.892;2023-06-26T13:10:59;6.10;;;5.50;;
5303;SDS011;2674;49.722;10.892;2023-06-26T13:13:24;12.70;;;6.60;;
5303;SDS011;2674;49.722;10.892;2023-06-26T13:15:51;8.73;;;6.07;;
5303;SDS011;2674;49.722;10.892;2023-06-26T13:18:17;6.90;;;6.03;;
5303;SDS011;2674;49.722;10.892;2023-06-26T13:20:42;9.47;;;6.13;;
5303;SDS011;2674;49.722;10.892;2023-06-26T13:23:08;5.90;;;5.30;;
5303;SDS011;2674;49.722;10.892;2023-06-26T13:25:34;5.80;;;5.40;;
5303;SDS011;2674;49.722;10.892;2023-06-26T13:28:00;7.07;;;6.47;;
5303;SDS011;2674;49.722;10.892;2023-06-26T13:30:26;9.63;;;6.50;;
5303;SDS011;2674;49.722;10.892;2023-06-26T13:32:52;7.67;;;6.37;;
5303;SDS011;2674;49.722;10.892;2023-06-26T13:35:18;12.20;;;6.43;;
5303;SDS011;2674;49.722;10.892;2023-06-26T13:37:43;7.20;;;6.50;;
5303;SDS011;2674;49.722;10.892;2023-06-26T13:40:10;7.07;;;6.37;;
5303;SDS011;2674;49.722;10.892;2023-06-26T13:42:36;7.43;;;6.73;;
5303;SDS011;2674;49.722;10.892;2023-06-26T13:45:02;6.83;;;6.13;;
5303;SDS011;2674;49.722;10.892;2023-06-26T13:47:29;7.33;;;6.47;;
5303;SDS011;2674;49.722;10.892;2023-06-26T13:49:54;8.37;;;6.23;;
5303;SDS011;2674;49.722;10.892;2023-06-26T13:52:20;10.23;;;6.17;;
5303;SDS011;2674;49.722;10.892;2023-06-26T13:54:48;6.50;;;5.90;;
5303;SDS011;2674;49.722;10.892;2023-06-26T13:57:13;8.63;;;6.30;;
5303;SDS011;2674;49.722;10.892;2023-06-26T13:59:40;7.33;;;6.73;;
5303;SDS011;2674;49.722;10.892;2023-06-26T14:02:06;12.33;;;6.77;;
5303;SDS011;2674;49.722;10.892;2023-06-26T14:04:33;8.33;;;6.33;;
5303;SDS011;2674;49.722;10.892;2023-06-26T14:06:59;8.63;;;6.00;;
5303;SDS011;2674;49.722;10.892;2023-06-26T14:09:25;7.10;;;6.17;;
5303;SDS011;2674;49.722;10.892;2023-06-26T14:11:51;7.30;;;6.40;;
5303;SDS011;2674;49.722;10.892;2023-06-26T14:14:17;6.60;;;5.90;;
5303;SDS011;2674;49.722;10.892;2023-06-26T14:16:42;6.90;;;6.20;;
5303;SDS011;2674;49.722;10.892;2023-06-26T14:19:09;7.10;;;6.43;;
5303;SDS011;2674;49.722;10.892;2023-06-26T14:21:39;7.70;;;6.90;;
5303;SDS011;2674;49.722;10.892;2023-06-26T14:24:05;9.87;;;5.77;;
5303;SDS011;2674;49.722;10.892;2023-06-26T14:26:31;6.90;;;6.30;;
5303;SDS011;2674;49.722;10.892;2023-06-26T14:28:58;6.80;;;6.10;;
5303;SDS011;2674;49.722;10.892;2023-06-26T14:31:25;6.93;;;6.33;;
5303;SDS011;2674;49.722;10.892;2023-06-26T14:33:51;8.37;;;6.43;;
5303;SDS011;2674;49.722;10.892;2023-06-26T14:36:17;7.20;;;5.63;;
5303;SDS011;2674;49.722;10.892;2023-06-26T14:38:44;9.20;;;5.97;;
5303;SDS011;2674;49.722;10.892;2023-06-26T14:41:10;6.33;;;5.73;;
5303;SDS011;2674;49.722;10.892;2023-06-26T14:43:38;6.60;;;5.53;;
5303;SDS011;2674;49.722;10.892;2023-06-26T14:46:04;9.20;;;5.97;;
5303;SDS011;2674;49.722;10.892;2023-06-26T14:48:30;6.40;;;5.90;;
5303;SDS011;2674;49.722;10.892;2023-06-26T14:50:56;9.77;;;7.17;;
5303;SDS011;2674;49.722;10.892;2023-06-26T14:53:21;7.20;;;6.60;;
5303;SDS011;2674;49.722;10.892;2023-06-26T14:55:47;8.10;;;7.30;;
5303;SDS011;2674;49.722;10.892;2023-06-26T14:58:13;12.90;;;7.80;;
5303;SDS011;2674;49.722;10.892;2023-06-26T15:00:39;9.80;;;7.13;;
5303;SDS011;2674;49.722;10.892;2023-06-26T15:03:05;8.07;;;7.27;;
5303;SDS011;2674;49.722;10.892;2023-06-26T15:05:30;11.03;;;7.70;;
5303;SDS011;2674;49.722;10.892;2023-06-26T15:07:57;9.10;;;8.20;;
5303;SDS011;2674;49.722;10.892;2023-06-26T15:10:23;12.37;;;8.07;;
5303;SDS011;2674;49.722;10.892;2023-06-26T15:12:48;11.13;;;7.73;;
5303;SDS011;2674;49.722;10.892;2023-06-26T15:15:14;10.53;;;8.30;;
5303;SDS011;2674;49.722;10.892;2023-06-26T15:17:42;11.23;;;7.00;;
5303;SDS011;2674;49.722;10.892;2023-06-26T15:20:07;12.73;;;7.97;;
5303;SDS011;2674;49.722;10.892;2023-06-26T15:22:33;8.80;;;6.90;;